Terminal Aerodrome Forecast
Issued by NWS

Home | Current Version | Previous Version | Text Only | Print | Product List | Glossary On
Versions: 1 2 3 4 5 6 7 8 9 10 11 12 13 14 15
000
FTUS43 KDVN 141100
TAFCID
TAF
KCID 141134Z 1412/1512 17006KT P6SM BKN070
     FM141800 22008KT P6SM SCT090
     FM150000 18003KT P6SM BKN250
     FM151000 10004KT P6SM OVC040=

USA.gov is the U.S. government's official web portal to all federal, state and local government web resources and services.